createdAt,value
2024-02-11T00:00:40.474Z,99306.19
2024-02-11T00:04:43.384Z,99309.97
2024-02-11T00:08:45.008Z,99315.69
2024-02-11T00:12:46.763Z,99302.47
2024-02-11T00:16:48.609Z,99304.22
2024-02-11T00:20:50.157Z,99299.06
2024-02-11T00:24:51.786Z,99299.81
2024-02-11T00:28:53.269Z,99304.34
2024-02-11T00:32:57.935Z,99305.44
2024-02-11T00:36:59.746Z,99301.78
2024-02-11T00:41:02.176Z,99316.56
2024-02-11T00:45:07.531Z,99314.13
2024-02-11T00:49:10.398Z,99307.19
2024-02-11T00:53:12.190Z,99307.81
2024-02-11T00:57:13.797Z,99301.97
2024-02-11T01:01:15.282Z,99315.53
2024-02-11T01:05:17.217Z,99308.94
2024-02-11T01:09:18.792Z,99315.41
2024-02-11T01:13:20.279Z,99313.03
2024-02-11T01:17:23.380Z,99312.41
2024-02-11T01:21:24.864Z,99299.13
2024-02-11T01:25:26.419Z,99296.94
2024-02-11T01:29:27.880Z,99299.63
2024-02-11T01:33:29.617Z,99294.84
2024-02-11T01:37:31.252Z,99293.31
2024-02-11T01:41:32.776Z,99300.28
2024-02-11T01:45:36.713Z,99302.84
2024-02-11T01:49:39.215Z,99293.38
2024-02-11T01:53:41.998Z,99292.19
2024-02-11T01:57:43.916Z,99286.94
2024-02-11T02:01:46.259Z,99280.72
2024-02-11T02:05:47.963Z,99279.53
2024-02-11T02:09:52.603Z,99274.66
2024-02-11T02:13:54.322Z,99269.59
2024-02-11T02:17:56.042Z,99266.91
2024-02-11T02:21:57.885Z,99249.59
2024-02-11T02:26:04.207Z,99254.91
2024-02-11T02:30:08.969Z,99253.91
2024-02-11T02:34:10.685Z,99252.22
2024-02-11T02:38:12.280Z,99250.81
2024-02-11T02:42:14.003Z,99240.13
2024-02-11T02:46:15.499Z,99238.34
2024-02-11T02:50:17.192Z,99232.97
2024-02-11T02:54:18.918Z,99229.31
2024-02-11T02:58:20.408Z,99207.84
2024-02-11T03:02:21.890Z,99210.69
2024-02-11T03:06:23.510Z,99215.13
2024-02-11T03:10:25.114Z,99213.75
2024-02-11T03:14:26.583Z,99214.38
2024-02-11T03:18:29.204Z,99215.28
2024-02-11T03:22:31.249Z,99217.28
2024-02-11T03:26:32.737Z,99226.91
2024-02-11T03:30:36.585Z,99217.06
2024-02-11T03:34:38.097Z,99201.69
2024-02-11T03:38:39.574Z,99204.38
2024-02-11T03:42:41.227Z,99209.56
2024-02-11T03:46:42.829Z,99219.84
2024-02-11T03:50:44.527Z,99216.88
2024-02-11T03:54:46.443Z,99223.31
2024-02-11T03:58:48.038Z,99218.88
2024-02-11T04:02:49.489Z,99225.28
2024-02-11T04:06:51.300Z,99230.56
2024-02-11T04:10:53.568Z,99226.78
2024-02-11T04:14:55.782Z,99225.50
2024-02-11T04:18:57.572Z,99219.59
2024-02-11T04:23:00.574Z,99224.16
2024-02-11T04:27:02.444Z,99214.88
2024-02-11T04:31:10.375Z,99213.13
2024-02-11T04:35:15.995Z,99208.91
2024-02-11T04:39:17.879Z,99211.25
2024-02-11T04:43:19.390Z,99201.44
2024-02-11T04:47:21.509Z,99204.16
2024-02-11T04:51:24.030Z,99204.53
2024-02-11T04:55:30.491Z,99208.72
2024-02-11T04:59:33.699Z,99198.84
2024-02-11T05:03:35.162Z,99203.88
2024-02-11T05:07:36.758Z,99194.72
2024-02-11T05:11:38.520Z,99207.25
2024-02-11T05:15:42.183Z,99187.88
2024-02-11T05:19:44.032Z,99191.34
2024-02-11T05:23:48.536Z,99192.00
2024-02-11T05:27:59.833Z,99191.25
2024-02-11T05:32:01.329Z,99189.50
2024-02-11T05:36:08.964Z,99184.19
2024-02-11T05:40:11.674Z,99191.91
2024-02-11T05:44:13.225Z,99189.34
2024-02-11T05:48:15.405Z,99189.44
2024-02-11T05:52:17.199Z,99185.97
2024-02-11T05:56:20.198Z,99191.56
2024-02-11T06:00:31.642Z,99200.03
2024-02-11T06:04:33.265Z,99195.53
2024-02-11T06:08:37.044Z,99190.72
2024-02-11T06:12:40.579Z,99197.06
2024-02-11T06:16:42.116Z,99197.13
2024-02-11T06:20:43.726Z,99196.41
2024-02-11T06:24:45.432Z,99201.53
2024-02-11T06:28:46.940Z,99202.50
2024-02-11T06:32:51.480Z,99210.38
2024-02-11T06:36:54.152Z,99201.81
2024-02-11T06:40:55.720Z,99215.94
2024-02-11T06:44:58.088Z,99201.97
2024-02-11T06:49:01.712Z,99196.84
2024-02-11T06:53:03.399Z,99201.13
2024-02-11T06:57:06.322Z,99202.69
2024-02-11T07:01:11.910Z,99206.38
2024-02-11T07:05:15.378Z,99204.59
2024-02-11T07:09:21.807Z,99193.69
2024-02-11T07:13:23.374Z,99197.97
2024-02-11T07:17:25.249Z,99205.75
2024-02-11T07:21:29.308Z,99212.13
2024-02-11T07:25:32.002Z,99208.25
2024-02-11T07:29:34.590Z,99204.06
2024-02-11T07:33:36.204Z,99214.94
2024-02-11T07:37:37.812Z,99218.38
2024-02-11T07:41:42.222Z,99218.03
2024-02-11T07:45:45.013Z,99219.38
2024-02-11T07:49:46.912Z,99218.78
2024-02-11T07:53:50.373Z,99211.56
2024-02-11T07:57:52.429Z,99214.53
2024-02-11T08:01:56.526Z,99218.50
2024-02-11T08:05:58.131Z,99222.81
2024-02-11T08:09:59.642Z,99216.66
2024-02-11T08:14:01.278Z,99215.03
2024-02-11T08:18:07.637Z,99215.84
2024-02-11T08:22:09.847Z,99222.16
2024-02-11T08:26:12.022Z,99228.69
2024-02-11T08:30:13.788Z,99236.59
2024-02-11T08:34:16.280Z,99248.94
2024-02-11T08:38:17.878Z,99243.41
2024-02-11T08:42:19.737Z,99258.13
2024-02-11T08:46:21.269Z,99257.13
2024-02-11T08:50:23.595Z,99256.47
2024-02-11T08:54:25.676Z,99267.63
2024-02-11T08:58:29.051Z,99260.06
2024-02-11T09:02:32.306Z,99277.81
2024-02-11T09:06:34.226Z,99274.66
2024-02-11T09:10:35.756Z,99277.19
2024-02-11T09:14:39.552Z,99284.25
2024-02-11T09:18:41.276Z,99294.44
2024-02-11T09:22:43.238Z,99285.66
2024-02-11T09:26:44.882Z,99291.81
2024-02-11T09:30:46.354Z,99285.56
2024-02-11T09:34:48.662Z,99297.19
2024-02-11T09:38:50.231Z,99295.56
2024-02-11T09:42:52.250Z,99297.34
2024-02-11T09:46:56.362Z,99293.56
2024-02-11T09:50:59.683Z,99287.44
2024-02-11T09:55:03.808Z,99288.94
2024-02-11T09:59:05.726Z,99294.91
2024-02-11T10:03:09.106Z,99292.31
2024-02-11T10:07:24.024Z,99291.50
2024-02-11T10:11:27.765Z,99302.91
2024-02-11T10:15:36.119Z,99293.75
2024-02-11T10:19:37.590Z,99305.88
2024-02-11T10:23:40.817Z,99306.50
2024-02-11T10:27:43.364Z,99302.34
2024-02-11T10:31:48.184Z,99308.59
2024-02-11T10:35:49.869Z,99306.06
2024-02-11T10:39:51.695Z,99305.78
2024-02-11T10:43:53.652Z,99303.41
2024-02-11T10:47:55.206Z,99303.88
2024-02-11T10:52:03.778Z,99311.97
2024-02-11T10:56:09.726Z,99299.41
2024-02-11T11:00:14.082Z,99286.44
2024-02-11T11:04:22.063Z,99294.16
2024-02-11T11:08:24.680Z,99286.94
2024-02-11T11:12:26.451Z,99281.66
2024-02-11T11:16:28.852Z,99276.75
2024-02-11T11:20:34.525Z,99273.91
2024-02-11T11:24:39.393Z,99266.78
2024-02-11T11:28:43.692Z,99267.25
2024-02-11T11:32:50.380Z,99262.38
2024-02-11T11:36:52.753Z,99259.78
2024-02-11T11:40:57.680Z,99263.13
2024-02-11T11:45:09.095Z,99264.91
2024-02-11T11:49:10.682Z,99266.69
2024-02-11T11:53:22.295Z,99264.97
2024-02-11T11:57:28.672Z,99263.56
2024-02-11T12:01:32.039Z,99260.25
2024-02-11T12:05:33.738Z,99266.09
2024-02-11T12:09:35.492Z,99260.94
2024-02-11T12:13:38.910Z,99249.66
2024-02-11T12:17:40.632Z,99246.41
2024-02-11T12:21:42.264Z,99244.78
2024-02-11T12:25:44.164Z,99235.28
2024-02-11T12:29:57.651Z,99244.19
2024-02-11T12:34:02.216Z,99236.69
2024-02-11T12:38:05.044Z,99236.66
2024-02-11T12:42:06.787Z,99215.13
2024-02-11T12:46:11.407Z,99226.88
2024-02-11T12:50:13.013Z,99228.19
2024-02-11T12:54:14.855Z,99216.59
2024-02-11T12:58:16.462Z,99221.09
2024-02-11T13:02:18.600Z,99215.53
2024-02-11T13:06:20.247Z,99220.22
2024-02-11T13:10:21.780Z,99214.66
2024-02-11T13:14:23.571Z,99212.31
2024-02-11T13:18:25.374Z,99217.53
2024-02-11T13:22:26.952Z,99206.88
2024-02-11T13:26:28.658Z,99205.50
2024-02-11T13:30:32.080Z,99203.44
2024-02-11T13:34:33.587Z,99195.31
2024-02-11T13:38:35.101Z,99201.75
2024-02-11T13:42:36.721Z,99187.50
2024-02-11T13:46:38.191Z,99195.19
2024-02-11T13:50:40.590Z,99203.28
2024-02-11T13:54:42.369Z,99203.66
2024-02-11T13:58:45.242Z,99203.44
2024-02-11T14:02:47.155Z,99199.69
2024-02-11T14:06:48.809Z,99197.78
2024-02-11T14:10:50.329Z,99194.16
2024-02-11T14:14:52.819Z,99205.03
2024-02-11T14:18:55.296Z,99207.88
2024-02-11T14:22:56.963Z,99207.63
2024-02-11T14:27:01.348Z,99212.31
2024-02-11T14:31:02.960Z,99208.59
2024-02-11T14:35:07.921Z,99209.97
2024-02-11T14:39:10.011Z,99211.44
2024-02-11T14:43:11.491Z,99205.41
2024-02-11T14:47:13.297Z,99203.25
2024-02-11T14:51:16.635Z,99200.41
2024-02-11T14:55:19.190Z,99194.66
2024-02-11T14:59:21.283Z,99198.81
2024-02-11T15:03:23.359Z,99204.03
2024-02-11T15:07:26.614Z,99204.41
2024-02-11T15:11:30.231Z,99205.91
2024-02-11T15:15:31.769Z,99205.09
2024-02-11T15:19:36.253Z,99213.28
2024-02-11T15:23:38.462Z,99205.75
2024-02-11T15:27:40.549Z,99218.00
2024-02-11T15:31:42.242Z,99214.25
2024-02-11T15:35:49.864Z,99222.59
2024-02-11T15:39:57.532Z,99217.28
2024-02-11T15:44:01.407Z,99215.38
2024-02-11T15:48:06.205Z,99224.63
2024-02-11T15:52:11.004Z,99224.97
2024-02-11T15:56:12.892Z,99231.66
2024-02-11T16:00:20.903Z,99226.72
2024-02-11T16:04:23.931Z,99225.84
2024-02-11T16:08:25.641Z,99225.63
2024-02-11T16:12:27.686Z,99225.22
2024-02-11T16:16:29.301Z,99222.47
2024-02-11T16:20:32.309Z,99229.38
2024-02-11T16:24:36.190Z,99234.44
2024-02-11T16:28:37.994Z,99227.88
2024-02-11T16:32:39.725Z,99228.28
2024-02-11T16:36:42.867Z,99225.66
2024-02-11T16:40:44.531Z,99217.22
2024-02-11T16:44:52.060Z,99225.41
2024-02-11T16:48:53.607Z,99224.72
2024-02-11T16:52:55.181Z,99230.63
2024-02-11T16:56:59.307Z,99225.00
2024-02-11T17:01:04.417Z,99226.81
2024-02-11T17:05:09.410Z,99234.47
2024-02-11T17:09:11.065Z,99224.78
2024-02-11T17:13:14.555Z,99230.41
2024-02-11T17:17:16.948Z,99233.78
2024-02-11T17:21:18.778Z,99233.81
2024-02-11T17:25:20.360Z,99237.66
2024-02-11T17:29:21.916Z,99241.22
2024-02-11T17:33:25.055Z,99247.41
2024-02-11T17:37:26.631Z,99250.66
2024-02-11T17:41:29.650Z,99247.63
2024-02-11T17:45:31.263Z,99251.66
2024-02-11T17:49:34.995Z,99249.09
2024-02-11T17:53:44.868Z,99251.56
2024-02-11T17:57:51.680Z,99248.06
2024-02-11T18:01:53.915Z,99247.63
2024-02-11T18:05:55.995Z,99249.22
2024-02-11T18:09:57.812Z,99253.69
2024-02-11T18:13:59.722Z,99255.31
2024-02-11T18:18:01.797Z,99265.59
2024-02-11T18:22:05.241Z,99265.19
2024-02-11T18:26:10.299Z,99263.28
2024-02-11T18:30:15.006Z,99269.66
2024-02-11T18:34:16.543Z,99272.78
2024-02-11T18:38:19.893Z,99273.31
2024-02-11T18:42:21.748Z,99275.06
2024-02-11T18:46:23.387Z,99276.28
2024-02-11T18:50:25.739Z,99272.25
2024-02-11T18:54:27.583Z,99277.91
2024-02-11T18:58:32.727Z,99280.47
2024-02-11T19:02:35.941Z,99279.69
2024-02-11T19:06:37.701Z,99282.00
2024-02-11T19:10:39.756Z,99277.19
2024-02-11T19:14:41.301Z,99284.94
2024-02-11T19:18:42.818Z,99286.03
2024-02-11T19:22:46.331Z,99292.78
2024-02-11T19:26:47.843Z,99288.81
2024-02-11T19:30:49.306Z,99281.34
2024-02-11T19:34:54.781Z,99286.09
2024-02-11T19:38:56.932Z,99287.13
2024-02-11T19:42:58.926Z,99292.97
2024-02-11T19:47:00.705Z,99288.22
2024-02-11T19:51:02.533Z,99287.94
2024-02-11T19:55:05.237Z,99288.81
2024-02-11T19:59:08.221Z,99287.94
2024-02-11T20:03:14.407Z,99286.44
2024-02-11T20:07:16.041Z,99280.84
2024-02-11T20:11:17.656Z,99289.88
2024-02-11T20:15:19.577Z,99285.53
2024-02-11T20:19:24.006Z,99288.22
2024-02-11T20:23:27.144Z,99287.69
2024-02-11T20:27:28.830Z,99292.16
2024-02-11T20:31:30.344Z,99302.69
2024-02-11T20:35:31.969Z,99298.44
2024-02-11T20:39:33.672Z,99298.91
2024-02-11T20:43:35.472Z,99298.97
2024-02-11T20:47:38.347Z,99301.69
2024-02-11T20:51:39.871Z,99307.69
2024-02-11T20:55:43.123Z,99313.41
2024-02-11T20:59:44.684Z,99309.91
2024-02-11T21:03:47.074Z,99310.56
2024-02-11T21:07:49.110Z,99311.22
2024-02-11T21:11:50.622Z,99305.66
2024-02-11T21:15:52.353Z,99313.09
2024-02-11T21:19:54.107Z,99318.91
2024-02-11T21:23:56.419Z,99318.16
2024-02-11T21:27:58.983Z,99324.28
2024-02-11T21:32:01.757Z,99319.91
2024-02-11T21:36:04.833Z,99316.38
2024-02-11T21:40:14.978Z,99310.50
2024-02-11T21:44:19.988Z,99320.38
2024-02-11T21:48:24.073Z,99320.19
2024-02-11T21:52:25.722Z,99324.94
2024-02-11T21:56:27.309Z,99320.19
2024-02-11T22:00:32.235Z,99321.19
2024-02-11T22:04:34.264Z,99320.47
2024-02-11T22:08:35.982Z,99326.22
2024-02-11T22:12:38.612Z,99316.47
2024-02-11T22:16:41.127Z,99322.81
2024-02-11T22:20:42.975Z,99328.06
2024-02-11T22:24:44.480Z,99324.94
2024-02-11T22:28:46.011Z,99331.34
2024-02-11T22:32:47.608Z,99329.00
2024-02-11T22:36:49.244Z,99325.56
2024-02-11T22:40:51.588Z,99327.81
2024-02-11T22:44:53.094Z,99330.53
2024-02-11T22:48:55.310Z,99340.19
2024-02-11T22:52:56.956Z,99332.72
2024-02-11T22:57:00.054Z,99336.84
2024-02-11T23:01:02.746Z,99333.78
2024-02-11T23:05:05.917Z,99334.59
2024-02-11T23:09:10.352Z,99339.91
2024-02-11T23:13:11.810Z,99346.22
2024-02-11T23:17:13.293Z,99346.72
2024-02-11T23:21:14.781Z,99350.78
2024-02-11T23:25:17.412Z,99348.84
2024-02-11T23:29:19.053Z,99353.59
2024-02-11T23:33:22.727Z,99365.16
2024-02-11T23:37:24.245Z,99369.47
2024-02-11T23:41:25.766Z,99368.50
2024-02-11T23:45:27.678Z,99367.63
2024-02-11T23:49:33.016Z,99368.59
2024-02-11T23:53:34.931Z,99366.22
2024-02-11T23:57:41.392Z,99366.78
